Hlavní strana
METAR-TAF:

METAR-TAF

Letiště :

Granada, Španělsko

zeměpisná šířka: 37-11N, zeměpisná délka: 003-47W, výška: 567 m

Aktuální stav počasí

Zpráva byla vytvořena před 27 minutami, v 04:00 UTC
Bezvětří
Teplota 15°C
Vlhkost vzduchu 72%
Tlak 1023 hPa
Viditelnost 10 km a více
Žádná oblačnost pod 1500 m, nevyskytují se cumulonimby.

METAR: LEGR 260400Z AUTO 00000KT CAVOK 15/10 Q1023

Čas: 06:27 (04:27 UTC)

Předpověď počasí

Zpráva byla vytvořena před 2 hodinami a 27 minutami, v 02:00 UTC
Předpověď platná od 26 v 03 UTC do 27 v 03 UTC
vítr z různých směrů 2 kt
Viditelnost 10 km a více
Žádná oblačnost pod 1500 m, nevyskytují se cumulonimby.
Změna
od 26 v 13 UTC do 26 v 15 UTC
Jižní vítr 10 kt
Změna
od 26 v 19 UTC do 26 v 21 UTC
vítr z různých směrů 2 kt

TAF: LEGR 260200Z 2603/2703 VRB02KT CAVOK TX32/2614Z TN13/2605Z BECMG 2613/2615 17010KT BECMG 2619/2621 VRB02KT

Stav a předpovědi počasí z více než 4 000 letišť (zprávy METAR a TAF).

Červené a žluté tečky na mapě představují dostupné meteorologické stanice.

Když kurzor umístíte na tečku, zobrazí se název stanice.

Pak kliknutím zobrazíte stav a předpověď počasí.

Chcete-li změnit mapu, kliknutím na zelené tlačítko se znaménkem +mapu přiblížíte, kliknutím na zelené tlačítko se znaménkem – mapu oddálíte a kliknutím na zelené šipky přejdete na sousední mapy.


METAR-TAF: